sensor_id;sensor_type;location;lat;lon;timestamp;P1;durP1;ratioP1;P2;durP2;ratioP2
14961;SDS011;56489;53.166;10.864;2022-08-21T00:01:49;2.78;;;1.95;;
14961;SDS011;56489;53.166;10.864;2022-08-21T00:04:16;2.35;;;2.15;;
14961;SDS011;56489;53.166;10.864;2022-08-21T00:06:47;2.20;;;2.00;;
14961;SDS011;56489;53.166;10.864;2022-08-21T00:09:15;4.03;;;2.22;;
14961;SDS011;56489;53.166;10.864;2022-08-21T00:11:42;2.55;;;2.35;;
14961;SDS011;56489;53.166;10.864;2022-08-21T00:14:13;4.03;;;1.90;;
14961;SDS011;56489;53.166;10.864;2022-08-21T00:16:40;1.60;;;1.50;;
14961;SDS011;56489;53.166;10.864;2022-08-21T00:19:07;2.10;;;1.90;;
14961;SDS011;56489;53.166;10.864;2022-08-21T00:21:34;2.70;;;2.05;;
14961;SDS011;56489;53.166;10.864;2022-08-21T00:24:01;2.67;;;2.47;;
14961;SDS011;56489;53.166;10.864;2022-08-21T00:26:28;2.45;;;2.00;;
14961;SDS011;56489;53.166;10.864;2022-08-21T00:28:55;2.55;;;2.38;;
14961;SDS011;56489;53.166;10.864;2022-08-21T00:31:23;2.42;;;1.77;;
14961;SDS011;56489;53.166;10.864;2022-08-21T00:33:50;4.07;;;2.15;;
14961;SDS011;56489;53.166;10.864;2022-08-21T00:36:16;2.55;;;2.22;;
14961;SDS011;56489;53.166;10.864;2022-08-21T00:38:43;4.90;;;2.83;;
14961;SDS011;56489;53.166;10.864;2022-08-21T00:41:10;2.67;;;2.03;;
14961;SDS011;56489;53.166;10.864;2022-08-21T00:43:57;1.60;;;1.50;;
14961;SDS011;56489;53.166;10.864;2022-08-21T00:46:24;2.67;;;1.83;;
14961;SDS011;56489;53.166;10.864;2022-08-21T00:48:53;2.08;;;1.98;;
14961;SDS011;56489;53.166;10.864;2022-08-21T00:51:33;3.15;;;1.83;;
14961;SDS011;56489;53.166;10.864;2022-08-21T00:54:06;2.45;;;2.25;;
14961;SDS011;56489;53.166;10.864;2022-08-21T00:56:45;2.78;;;2.10;;
14961;SDS011;56489;53.166;10.864;2022-08-21T00:59:14;2.22;;;2.03;;
14961;SDS011;56489;53.166;10.864;2022-08-21T01:01:42;2.17;;;1.98;;
14961;SDS011;56489;53.166;10.864;2022-08-21T01:04:09;2.47;;;2.10;;
14961;SDS011;56489;53.166;10.864;2022-08-21T01:06:35;2.83;;;2.13;;
14961;SDS011;56489;53.166;10.864;2022-08-21T01:09:02;2.05;;;1.85;;
14961;SDS011;56489;53.166;10.864;2022-08-21T01:11:29;2.60;;;2.40;;
14961;SDS011;56489;53.166;10.864;2022-08-21T01:13:56;2.80;;;2.33;;
14961;SDS011;56489;53.166;10.864;2022-08-21T01:16:23;3.50;;;2.33;;
14961;SDS011;56489;53.166;10.864;2022-08-21T01:18:51;2.17;;;2.08;;
14961;SDS011;56489;53.166;10.864;2022-08-21T01:21:19;2.78;;;2.10;;
14961;SDS011;56489;53.166;10.864;2022-08-21T01:23:53;4.47;;;2.65;;
14961;SDS011;56489;53.166;10.864;2022-08-21T01:26:22;3.17;;;2.25;;
14961;SDS011;56489;53.166;10.864;2022-08-21T01:29:16;2.53;;;2.33;;
14961;SDS011;56489;53.166;10.864;2022-08-21T01:31:57;2.10;;;2.00;;
14961;SDS011;56489;53.166;10.864;2022-08-21T01:34:24;3.45;;;2.70;;
14961;SDS011;56489;53.166;10.864;2022-08-21T01:36:51;4.03;;;2.25;;
14961;SDS011;56489;53.166;10.864;2022-08-21T01:39:18;3.22;;;2.60;;
14961;SDS011;56489;53.166;10.864;2022-08-21T01:41:45;2.63;;;2.15;;
14961;SDS011;56489;53.166;10.864;2022-08-21T01:44:12;2.38;;;2.10;;
14961;SDS011;56489;53.166;10.864;2022-08-21T01:46:39;2.33;;;2.10;;
14961;SDS011;56489;53.166;10.864;2022-08-21T01:49:05;3.97;;;2.75;;
14961;SDS011;56489;53.166;10.864;2022-08-21T01:51:32;4.15;;;2.55;;
14961;SDS011;56489;53.166;10.864;2022-08-21T01:53:59;2.65;;;2.30;;
14961;SDS011;56489;53.166;10.864;2022-08-21T01:56:25;2.45;;;2.25;;
14961;SDS011;56489;53.166;10.864;2022-08-21T01:58:53;2.88;;;2.00;;
14961;SDS011;56489;53.166;10.864;2022-08-21T02:01:20;4.80;;;2.30;;
14961;SDS011;56489;53.166;10.864;2022-08-21T02:03:47;4.30;;;2.60;;
14961;SDS011;56489;53.166;10.864;2022-08-21T02:06:14;2.97;;;2.67;;
14961;SDS011;56489;53.166;10.864;2022-08-21T02:08:44;3.13;;;2.85;;
14961;SDS011;56489;53.166;10.864;2022-08-21T02:11:12;3.17;;;2.50;;
14961;SDS011;56489;53.166;10.864;2022-08-21T02:13:38;3.33;;;2.50;;
14961;SDS011;56489;53.166;10.864;2022-08-21T02:16:05;2.75;;;2.55;;
14961;SDS011;56489;53.166;10.864;2022-08-21T02:18:34;2.63;;;2.25;;
14961;SDS011;56489;53.166;10.864;2022-08-21T02:21:01;2.83;;;2.63;;
14961;SDS011;56489;53.166;10.864;2022-08-21T02:23:28;2.25;;;2.05;;
14961;SDS011;56489;53.166;10.864;2022-08-21T02:25:56;3.50;;;2.35;;
14961;SDS011;56489;53.166;10.864;2022-08-21T02:28:23;2.40;;;2.17;;
14961;SDS011;56489;53.166;10.864;2022-08-21T02:30:52;2.85;;;2.60;;
14961;SDS011;56489;53.166;10.864;2022-08-21T02:33:21;2.58;;;2.38;;
14961;SDS011;56489;53.166;10.864;2022-08-21T02:35:48;2.22;;;2.13;;
14961;SDS011;56489;53.166;10.864;2022-08-21T02:38:17;3.00;;;2.50;;
14961;SDS011;56489;53.166;10.864;2022-08-21T02:40:47;2.72;;;2.53;;
14961;SDS011;56489;53.166;10.864;2022-08-21T02:43:16;3.65;;;2.67;;
14961;SDS011;56489;53.166;10.864;2022-08-21T02:45:45;2.50;;;2.20;;
14961;SDS011;56489;53.166;10.864;2022-08-21T02:48:14;2.33;;;2.13;;
14961;SDS011;56489;53.166;10.864;2022-08-21T02:50:44;3.00;;;2.10;;
14961;SDS011;56489;53.166;10.864;2022-08-21T02:53:17;2.90;;;2.25;;
14961;SDS011;56489;53.166;10.864;2022-08-21T02:55:45;2.33;;;2.20;;
14961;SDS011;56489;53.166;10.864;2022-08-21T02:58:13;2.88;;;2.45;;
14961;SDS011;56489;53.166;10.864;2022-08-21T03:00:42;2.65;;;2.17;;
14961;SDS011;56489;53.166;10.864;2022-08-21T03:03:09;2.80;;;1.92;;
14961;SDS011;56489;53.166;10.864;2022-08-21T03:05:36;2.47;;;2.28;;
14961;SDS011;56489;53.166;10.864;2022-08-21T03:08:05;2.47;;;2.28;;
14961;SDS011;56489;53.166;10.864;2022-08-21T03:10:36;3.65;;;2.40;;
14961;SDS011;56489;53.166;10.864;2022-08-21T03:13:06;2.50;;;2.30;;
14961;SDS011;56489;53.166;10.864;2022-08-21T03:15:33;2.53;;;2.33;;
14961;SDS011;56489;53.166;10.864;2022-08-21T03:18:00;3.03;;;2.30;;
14961;SDS011;56489;53.166;10.864;2022-08-21T03:20:28;2.50;;;2.30;;
14961;SDS011;56489;53.166;10.864;2022-08-21T03:22:56;3.78;;;2.40;;
14961;SDS011;56489;53.166;10.864;2022-08-21T03:25:25;2.53;;;2.33;;
14961;SDS011;56489;53.166;10.864;2022-08-21T03:28:06;2.60;;;2.40;;
14961;SDS011;56489;53.166;10.864;2022-08-21T03:30:39;2.72;;;2.53;;
14961;SDS011;56489;53.166;10.864;2022-08-21T03:33:07;2.40;;;2.20;;
14961;SDS011;56489;53.166;10.864;2022-08-21T03:35:37;2.92;;;2.40;;
14961;SDS011;56489;53.166;10.864;2022-08-21T03:38:04;2.17;;;1.98;;
14961;SDS011;56489;53.166;10.864;2022-08-21T03:40:30;4.93;;;2.08;;
14961;SDS011;56489;53.166;10.864;2022-08-21T03:42:57;2.55;;;2.35;;
14961;SDS011;56489;53.166;10.864;2022-08-21T03:45:25;2.53;;;2.42;;
14961;SDS011;56489;53.166;10.864;2022-08-21T03:47:55;2.38;;;2.17;;
14961;SDS011;56489;53.166;10.864;2022-08-21T03:50:25;3.30;;;2.97;;
14961;SDS011;56489;53.166;10.864;2022-08-21T03:52:53;3.90;;;3.20;;
14961;SDS011;56489;53.166;10.864;2022-08-21T03:55:20;2.80;;;2.60;;
14961;SDS011;56489;53.166;10.864;2022-08-21T03:57:47;3.00;;;2.80;;
14961;SDS011;56489;53.166;10.864;2022-08-21T04:00:14;4.18;;;2.17;;
14961;SDS011;56489;53.166;10.864;2022-08-21T04:02:42;3.20;;;2.33;;
14961;SDS011;56489;53.166;10.864;2022-08-21T04:05:12;3.78;;;2.55;;
14961;SDS011;56489;53.166;10.864;2022-08-21T04:07:40;3.13;;;2.42;;
14961;SDS011;56489;53.166;10.864;2022-08-21T04:10:07;4.10;;;2.65;;
14961;SDS011;56489;53.166;10.864;2022-08-21T04:12:33;2.88;;;2.55;;
14961;SDS011;56489;53.166;10.864;2022-08-21T04:15:00;2.50;;;2.30;;
14961;SDS011;56489;53.166;10.864;2022-08-21T04:17:27;2.95;;;2.58;;
14961;SDS011;56489;53.166;10.864;2022-08-21T04:19:54;2.97;;;2.70;;
14961;SDS011;56489;53.166;10.864;2022-08-21T04:22:21;3.58;;;3.20;;
14961;SDS011;56489;53.166;10.864;2022-08-21T04:24:48;2.95;;;2.63;;
14961;SDS011;56489;53.166;10.864;2022-08-21T04:27:15;3.85;;;2.83;;
14961;SDS011;56489;53.166;10.864;2022-08-21T04:29:42;3.03;;;2.80;;
14961;SDS011;56489;53.166;10.864;2022-08-21T04:32:08;2.60;;;2.40;;
14961;SDS011;56489;53.166;10.864;2022-08-21T04:34:35;4.78;;;2.35;;
14961;SDS011;56489;53.166;10.864;2022-08-21T04:37:02;2.53;;;2.33;;
14961;SDS011;56489;53.166;10.864;2022-08-21T04:39:29;3.80;;;2.70;;
14961;SDS011;56489;53.166;10.864;2022-08-21T04:41:55;4.50;;;2.70;;
14961;SDS011;56489;53.166;10.864;2022-08-21T04:44:22;2.83;;;2.50;;
14961;SDS011;56489;53.166;10.864;2022-08-21T04:46:49;2.90;;;2.58;;
14961;SDS011;56489;53.166;10.864;2022-08-21T04:49:16;3.55;;;2.50;;
14961;SDS011;56489;53.166;10.864;2022-08-21T04:51:42;2.58;;;2.38;;
14961;SDS011;56489;53.166;10.864;2022-08-21T04:54:12;2.40;;;2.20;;
14961;SDS011;56489;53.166;10.864;2022-08-21T04:56:49;2.75;;;2.17;;
14961;SDS011;56489;53.166;10.864;2022-08-21T04:59:24;2.78;;;2.50;;
14961;SDS011;56489;53.166;10.864;2022-08-21T05:01:53;3.00;;;2.67;;
14961;SDS011;56489;53.166;10.864;2022-08-21T05:04:23;2.70;;;2.50;;
14961;SDS011;56489;53.166;10.864;2022-08-21T05:06:54;3.28;;;2.53;;
14961;SDS011;56489;53.166;10.864;2022-08-21T05:09:24;2.90;;;2.65;;
14961;SDS011;56489;53.166;10.864;2022-08-21T05:11:53;2.00;;;1.90;;
14961;SDS011;56489;53.166;10.864;2022-08-21T05:14:20;2.65;;;2.45;;
14961;SDS011;56489;53.166;10.864;2022-08-21T05:16:47;2.70;;;2.25;;
14961;SDS011;56489;53.166;10.864;2022-08-21T05:19:14;2.35;;;2.20;;
14961;SDS011;56489;53.166;10.864;2022-08-21T05:21:41;2.47;;;2.28;;
14961;SDS011;56489;53.166;10.864;2022-08-21T05:24:09;3.33;;;2.10;;
14961;SDS011;56489;53.166;10.864;2022-08-21T05:26:37;2.45;;;2.10;;
14961;SDS011;56489;53.166;10.864;2022-08-21T05:29:11;2.30;;;2.10;;
14961;SDS011;56489;53.166;10.864;2022-08-21T05:31:40;2.50;;;2.28;;
14961;SDS011;56489;53.166;10.864;2022-08-21T05:34:07;2.65;;;2.13;;
14961;SDS011;56489;53.166;10.864;2022-08-21T05:36:34;2.53;;;2.00;;
14961;SDS011;56489;53.166;10.864;2022-08-21T05:39:01;2.17;;;1.90;;
14961;SDS011;56489;53.166;10.864;2022-08-21T05:41:28;2.25;;;1.95;;
14961;SDS011;56489;53.166;10.864;2022-08-21T05:43:54;2.10;;;1.95;;
14961;SDS011;56489;53.166;10.864;2022-08-21T05:46:21;2.28;;;2.08;;
14961;SDS011;56489;53.166;10.864;2022-08-21T05:48:47;1.77;;;1.67;;
14961;SDS011;56489;53.166;10.864;2022-08-21T05:51:15;2.08;;;1.75;;
14961;SDS011;56489;53.166;10.864;2022-08-21T05:53:42;1.75;;;1.65;;
14961;SDS011;56489;53.166;10.864;2022-08-21T05:56:09;1.83;;;1.73;;
14961;SDS011;56489;53.166;10.864;2022-08-21T05:58:37;2.00;;;1.80;;
14961;SDS011;56489;53.166;10.864;2022-08-21T06:01:04;2.30;;;1.98;;
14961;SDS011;56489;53.166;10.864;2022-08-21T06:03:34;3.47;;;2.08;;
14961;SDS011;56489;53.166;10.864;2022-08-21T06:06:03;1.98;;;1.88;;
14961;SDS011;56489;53.166;10.864;2022-08-21T06:08:29;2.10;;;1.65;;
14961;SDS011;56489;53.166;10.864;2022-08-21T06:10:58;1.70;;;1.60;;
14961;SDS011;56489;53.166;10.864;2022-08-21T06:13:26;2.13;;;1.88;;
14961;SDS011;56489;53.166;10.864;2022-08-21T06:16:07;2.17;;;1.95;;
14961;SDS011;56489;53.166;10.864;2022-08-21T06:18:41;2.35;;;2.17;;
14961;SDS011;56489;53.166;10.864;2022-08-21T06:21:08;2.22;;;1.85;;
14961;SDS011;56489;53.166;10.864;2022-08-21T06:23:35;3.17;;;1.70;;
14961;SDS011;56489;53.166;10.864;2022-08-21T06:26:02;1.90;;;1.70;;
14961;SDS011;56489;53.166;10.864;2022-08-21T06:28:31;1.95;;;1.70;;
14961;SDS011;56489;53.166;10.864;2022-08-21T06:30:58;1.92;;;1.73;;
14961;SDS011;56489;53.166;10.864;2022-08-21T06:33:25;1.50;;;1.40;;
14961;SDS011;56489;53.166;10.864;2022-08-21T06:35:57;1.55;;;1.45;;
14961;SDS011;56489;53.166;10.864;2022-08-21T06:38:24;1.92;;;1.58;;
14961;SDS011;56489;53.166;10.864;2022-08-21T06:40:51;2.38;;;1.60;;
14961;SDS011;56489;53.166;10.864;2022-08-21T06:43:18;1.35;;;1.15;;
14961;SDS011;56489;53.166;10.864;2022-08-21T06:45:44;1.65;;;1.55;;
14961;SDS011;56489;53.166;10.864;2022-08-21T06:48:11;1.35;;;1.25;;
14961;SDS011;56489;53.166;10.864;2022-08-21T06:50:44;2.35;;;1.50;;
14961;SDS011;56489;53.166;10.864;2022-08-21T06:53:11;1.88;;;1.52;;
14961;SDS011;56489;53.166;10.864;2022-08-21T06:55:40;1.63;;;1.20;;
14961;SDS011;56489;53.166;10.864;2022-08-21T06:58:08;1.98;;;1.27;;
14961;SDS011;56489;53.166;10.864;2022-08-21T07:00:37;2.53;;;1.63;;
14961;SDS011;56489;53.166;10.864;2022-08-21T07:03:06;1.60;;;1.50;;
14961;SDS011;56489;53.166;10.864;2022-08-21T07:05:32;2.05;;;1.50;;
14961;SDS011;56489;53.166;10.864;2022-08-21T07:07:59;1.80;;;1.30;;
14961;SDS011;56489;53.166;10.864;2022-08-21T07:10:26;2.35;;;1.30;;
14961;SDS011;56489;53.166;10.864;2022-08-21T07:12:54;1.40;;;1.30;;
14961;SDS011;56489;53.166;10.864;2022-08-21T07:15:27;1.45;;;1.35;;
14961;SDS011;56489;53.166;10.864;2022-08-21T07:17:55;1.25;;;0.95;;
14961;SDS011;56489;53.166;10.864;2022-08-21T07:20:23;2.08;;;1.30;;
14961;SDS011;56489;53.166;10.864;2022-08-21T07:22:50;1.50;;;1.08;;
14961;SDS011;56489;53.166;10.864;2022-08-21T07:25:17;1.35;;;1.13;;
14961;SDS011;56489;53.166;10.864;2022-08-21T07:27:43;1.35;;;1.23;;
14961;SDS011;56489;53.166;10.864;2022-08-21T07:30:10;1.83;;;1.33;;
14961;SDS011;56489;53.166;10.864;2022-08-21T07:32:37;2.40;;;1.45;;
14961;SDS011;56489;53.166;10.864;2022-08-21T07:35:03;1.17;;;0.80;;
14961;SDS011;56489;53.166;10.864;2022-08-21T07:37:30;1.10;;;1.00;;
14961;SDS011;56489;53.166;10.864;2022-08-21T07:39:57;1.48;;;1.13;;
14961;SDS011;56489;53.166;10.864;2022-08-21T07:42:24;1.10;;;1.00;;
14961;SDS011;56489;53.166;10.864;2022-08-21T07:44:51;1.25;;;0.80;;
14961;SDS011;56489;53.166;10.864;2022-08-21T07:47:21;1.50;;;1.00;;
14961;SDS011;56489;53.166;10.864;2022-08-21T07:50:07;1.27;;;0.88;;
14961;SDS011;56489;53.166;10.864;2022-08-21T07:52:35;1.65;;;1.30;;
14961;SDS011;56489;53.166;10.864;2022-08-21T07:55:03;1.58;;;0.90;;
14961;SDS011;56489;53.166;10.864;2022-08-21T07:57:32;1.00;;;0.88;;
14961;SDS011;56489;53.166;10.864;2022-08-21T07:59:58;2.22;;;1.17;;
14961;SDS011;56489;53.166;10.864;2022-08-21T08:02:26;1.30;;;1.20;;
14961;SDS011;56489;53.166;10.864;2022-08-21T08:04:54;2.08;;;0.93;;
14961;SDS011;56489;53.166;10.864;2022-08-21T08:07:25;1.55;;;1.10;;
14961;SDS011;56489;53.166;10.864;2022-08-21T08:09:52;2.80;;;1.42;;
14961;SDS011;56489;53.166;10.864;2022-08-21T08:12:18;2.83;;;1.40;;
14961;SDS011;56489;53.166;10.864;2022-08-21T08:14:46;1.73;;;1.23;;
14961;SDS011;56489;53.166;10.864;2022-08-21T08:17:13;2.33;;;1.30;;
14961;SDS011;56489;53.166;10.864;2022-08-21T08:19:39;2.10;;;1.10;;
14961;SDS011;56489;53.166;10.864;2022-08-21T08:22:13;1.45;;;1.08;;
14961;SDS011;56489;53.166;10.864;2022-08-21T08:24:40;2.17;;;1.25;;
14961;SDS011;56489;53.166;10.864;2022-08-21T08:27:07;2.33;;;1.55;;
14961;SDS011;56489;53.166;10.864;2022-08-21T08:29:34;3.75;;;1.42;;
14961;SDS011;56489;53.166;10.864;2022-08-21T08:32:01;3.20;;;1.50;;
14961;SDS011;56489;53.166;10.864;2022-08-21T08:34:28;1.40;;;1.10;;
14961;SDS011;56489;53.166;10.864;2022-08-21T08:36:56;3.22;;;1.67;;
14961;SDS011;56489;53.166;10.864;2022-08-21T08:39:24;3.13;;;1.40;;
14961;SDS011;56489;53.166;10.864;2022-08-21T08:41:59;2.08;;;1.35;;
14961;SDS011;56489;53.166;10.864;2022-08-21T08:45:04;1.27;;;1.10;;
14961;SDS011;56489;53.166;10.864;2022-08-21T08:47:40;1.73;;;1.60;;
14961;SDS011;56489;53.166;10.864;2022-08-21T08:50:12;2.58;;;1.40;;
14961;SDS011;56489;53.166;10.864;2022-08-21T08:53:03;2.83;;;1.60;;
14961;SDS011;56489;53.166;10.864;2022-08-21T08:55:35;1.75;;;1.23;;
14961;SDS011;56489;53.166;10.864;2022-08-21T08:58:05;1.73;;;1.30;;
14961;SDS011;56489;53.166;10.864;2022-08-21T09:00:32;3.00;;;1.40;;
14961;SDS011;56489;53.166;10.864;2022-08-21T09:03:00;3.90;;;1.50;;
14961;SDS011;56489;53.166;10.864;2022-08-21T09:05:30;2.63;;;1.35;;
14961;SDS011;56489;53.166;10.864;2022-08-21T09:13:46;3.42;;;1.40;;
14961;SDS011;56489;53.166;10.864;2022-08-21T09:19:02;1.45;;;1.30;;
14961;SDS011;56489;53.166;10.864;2022-08-21T09:21:56;4.03;;;1.50;;
14961;SDS011;56489;53.166;10.864;2022-08-21T09:29:39;2.45;;;1.60;;
14961;SDS011;56489;53.166;10.864;2022-08-21T09:32:15;4.85;;;1.77;;
14961;SDS011;56489;53.166;10.864;2022-08-21T09:35:05;2.22;;;1.45;;
14961;SDS011;56489;53.166;10.864;2022-08-21T09:37:45;2.15;;;1.60;;
14961;SDS011;56489;53.166;10.864;2022-08-21T09:45:38;2.65;;;1.70;;
14961;SDS011;56489;53.166;10.864;2022-08-21T09:48:15;4.20;;;1.65;;
14961;SDS011;56489;53.166;10.864;2022-08-21T09:50:45;1.80;;;1.52;;
14961;SDS011;56489;53.166;10.864;2022-08-21T09:53:21;2.42;;;1.63;;
14961;SDS011;56489;53.166;10.864;2022-08-21T09:55:57;1.95;;;1.40;;
14961;SDS011;56489;53.166;10.864;2022-08-21T09:58:50;2.90;;;1.70;;
14961;SDS011;56489;53.166;10.864;2022-08-21T10:01:19;1.63;;;1.42;;
14961;SDS011;56489;53.166;10.864;2022-08-21T10:03:48;5.10;;;1.77;;
14961;SDS011;56489;53.166;10.864;2022-08-21T10:06:28;4.03;;;1.63;;
14961;SDS011;56489;53.166;10.864;2022-08-21T10:09:09;3.08;;;1.38;;
14961;SDS011;56489;53.166;10.864;2022-08-21T10:11:54;4.70;;;1.83;;
14961;SDS011;56489;53.166;10.864;2022-08-21T10:14:45;3.47;;;1.77;;
14961;SDS011;56489;53.166;10.864;2022-08-21T10:23:27;4.43;;;2.20;;
14961;SDS011;56489;53.166;10.864;2022-08-21T10:29:03;2.40;;;1.70;;
14961;SDS011;56489;53.166;10.864;2022-08-21T10:32:03;4.85;;;1.92;;
14961;SDS011;56489;53.166;10.864;2022-08-21T10:34:55;3.28;;;1.88;;
14961;SDS011;56489;53.166;10.864;2022-08-21T10:37:59;2.17;;;1.83;;
14961;SDS011;56489;53.166;10.864;2022-08-21T10:41:19;3.42;;;1.70;;
14961;SDS011;56489;53.166;10.864;2022-08-21T10:44:15;3.38;;;2.05;;
14961;SDS011;56489;53.166;10.864;2022-08-21T10:47:06;3.67;;;1.63;;
14961;SDS011;56489;53.166;10.864;2022-08-21T10:49:43;1.45;;;1.35;;
14961;SDS011;56489;53.166;10.864;2022-08-21T10:52:22;2.33;;;2.00;;
14961;SDS011;56489;53.166;10.864;2022-08-21T10:57:46;4.63;;;2.10;;
14961;SDS011;56489;53.166;10.864;2022-08-21T11:00:16;2.38;;;1.70;;
14961;SDS011;56489;53.166;10.864;2022-08-21T11:02:53;2.88;;;1.42;;
14961;SDS011;56489;53.166;10.864;2022-08-21T11:05:29;5.45;;;1.88;;
14961;SDS011;56489;53.166;10.864;2022-08-21T11:08:04;4.22;;;2.00;;
14961;SDS011;56489;53.166;10.864;2022-08-21T11:10:38;3.30;;;1.83;;
14961;SDS011;56489;53.166;10.864;2022-08-21T11:13:33;2.67;;;2.15;;
14961;SDS011;56489;53.166;10.864;2022-08-21T11:16:19;3.10;;;2.00;;
14961;SDS011;56489;53.166;10.864;2022-08-21T11:21:56;3.90;;;2.08;;
14961;SDS011;56489;53.166;10.864;2022-08-21T11:24:32;2.80;;;2.08;;
14961;SDS011;56489;53.166;10.864;2022-08-21T11:27:03;4.50;;;1.95;;
14961;SDS011;56489;53.166;10.864;2022-08-21T11:29:43;4.28;;;2.13;;
14961;SDS011;56489;53.166;10.864;2022-08-21T11:35:35;2.72;;;2.08;;
14961;SDS011;56489;53.166;10.864;2022-08-21T11:38:20;4.65;;;2.22;;
14961;SDS011;56489;53.166;10.864;2022-08-21T11:44:04;3.85;;;2.25;;
14961;SDS011;56489;53.166;10.864;2022-08-21T11:46:49;2.13;;;1.88;;
14961;SDS011;56489;53.166;10.864;2022-08-21T11:50:00;3.38;;;2.13;;
14961;SDS011;56489;53.166;10.864;2022-08-21T11:53:09;4.57;;;2.55;;
14961;SDS011;56489;53.166;10.864;2022-08-21T11:55:49;4.70;;;2.00;;
14961;SDS011;56489;53.166;10.864;2022-08-21T11:58:43;2.72;;;2.13;;
14961;SDS011;56489;53.166;10.864;2022-08-21T12:01:15;3.35;;;2.17;;
14961;SDS011;56489;53.166;10.864;2022-08-21T12:03:58;2.05;;;1.83;;
14961;SDS011;56489;53.166;10.864;2022-08-21T12:06:32;4.28;;;2.03;;
14961;SDS011;56489;53.166;10.864;2022-08-21T12:09:06;2.28;;;2.03;;
14961;SDS011;56489;53.166;10.864;2022-08-21T12:11:45;3.72;;;2.00;;
14961;SDS011;56489;53.166;10.864;2022-08-21T12:14:18;2.20;;;1.50;;
14961;SDS011;56489;53.166;10.864;2022-08-21T12:16:46;3.13;;;2.17;;
14961;SDS011;56489;53.166;10.864;2022-08-21T12:19:28;5.47;;;1.90;;
14961;SDS011;56489;53.166;10.864;2022-08-21T12:24:36;3.75;;;1.98;;
14961;SDS011;56489;53.166;10.864;2022-08-21T12:29:53;2.70;;;1.77;;
14961;SDS011;56489;53.166;10.864;2022-08-21T12:35:09;2.95;;;1.92;;
14961;SDS011;56489;53.166;10.864;2022-08-21T12:38:00;2.83;;;2.15;;
14961;SDS011;56489;53.166;10.864;2022-08-21T12:40:54;2.83;;;1.90;;
14961;SDS011;56489;53.166;10.864;2022-08-21T12:43:29;2.45;;;1.83;;
14961;SDS011;56489;53.166;10.864;2022-08-21T12:46:02;2.03;;;1.75;;
14961;SDS011;56489;53.166;10.864;2022-08-21T12:51:22;1.83;;;1.55;;
14961;SDS011;56489;53.166;10.864;2022-08-21T12:53:55;2.35;;;2.03;;
14961;SDS011;56489;53.166;10.864;2022-08-21T12:56:26;4.25;;;1.60;;
14961;SDS011;56489;53.166;10.864;2022-08-21T12:58:55;2.67;;;1.50;;
14961;SDS011;56489;53.166;10.864;2022-08-21T13:01:29;2.55;;;1.50;;
14961;SDS011;56489;53.166;10.864;2022-08-21T13:04:08;3.60;;;1.58;;
14961;SDS011;56489;53.166;10.864;2022-08-21T13:06:39;3.22;;;1.60;;
14961;SDS011;56489;53.166;10.864;2022-08-21T13:09:09;1.60;;;1.50;;
14961;SDS011;56489;53.166;10.864;2022-08-21T13:11:39;4.22;;;1.60;;
14961;SDS011;56489;53.166;10.864;2022-08-21T13:17:11;1.98;;;1.52;;
14961;SDS011;56489;53.166;10.864;2022-08-21T13:19:55;3.95;;;1.30;;
14961;SDS011;56489;53.166;10.864;2022-08-21T13:22:24;3.63;;;1.60;;
14961;SDS011;56489;53.166;10.864;2022-08-21T13:24:59;1.40;;;1.20;;
14961;SDS011;56489;53.166;10.864;2022-08-21T13:27:32;2.38;;;1.60;;
14961;SDS011;56489;53.166;10.864;2022-08-21T13:30:04;2.00;;;1.30;;
14961;SDS011;56489;53.166;10.864;2022-08-21T13:32:34;1.95;;;1.45;;
14961;SDS011;56489;53.166;10.864;2022-08-21T13:35:07;1.50;;;1.40;;
14961;SDS011;56489;53.166;10.864;2022-08-21T13:37:38;2.38;;;1.20;;
14961;SDS011;56489;53.166;10.864;2022-08-21T13:40:07;1.77;;;1.35;;
14961;SDS011;56489;53.166;10.864;2022-08-21T13:42:41;4.10;;;1.40;;
14961;SDS011;56489;53.166;10.864;2022-08-21T13:45:15;2.67;;;1.50;;
14961;SDS011;56489;53.166;10.864;2022-08-21T13:47:53;1.45;;;1.30;;
14961;SDS011;56489;53.166;10.864;2022-08-21T13:50:21;3.97;;;1.45;;
14961;SDS011;56489;53.166;10.864;2022-08-21T13:53:00;4.63;;;1.70;;
14961;SDS011;56489;53.166;10.864;2022-08-21T13:55:42;2.55;;;1.50;;
14961;SDS011;56489;53.166;10.864;2022-08-21T13:58:10;3.08;;;1.75;;
14961;SDS011;56489;53.166;10.864;2022-08-21T14:00:44;1.70;;;1.42;;
14961;SDS011;56489;53.166;10.864;2022-08-21T14:06:01;1.85;;;1.10;;
14961;SDS011;56489;53.166;10.864;2022-08-21T14:08:33;1.40;;;1.08;;
14961;SDS011;56489;53.166;10.864;2022-08-21T14:11:05;1.50;;;1.20;;
14961;SDS011;56489;53.166;10.864;2022-08-21T14:13:37;2.63;;;1.10;;
14961;SDS011;56489;53.166;10.864;2022-08-21T14:16:12;2.50;;;1.83;;
14961;SDS011;56489;53.166;10.864;2022-08-21T14:18:51;2.13;;;1.45;;
14961;SDS011;56489;53.166;10.864;2022-08-21T14:21:24;2.05;;;1.23;;
14961;SDS011;56489;53.166;10.864;2022-08-21T14:23:59;1.10;;;1.00;;
14961;SDS011;56489;53.166;10.864;2022-08-21T14:26:30;1.77;;;1.05;;
14961;SDS011;56489;53.166;10.864;2022-08-21T14:29:00;1.10;;;1.00;;
14961;SDS011;56489;53.166;10.864;2022-08-21T14:31:35;1.33;;;1.10;;
14961;SDS011;56489;53.166;10.864;2022-08-21T14:34:09;1.58;;;1.10;;
14961;SDS011;56489;53.166;10.864;2022-08-21T14:36:44;2.00;;;1.17;;
14961;SDS011;56489;53.166;10.864;2022-08-21T14:39:11;2.03;;;1.23;;
14961;SDS011;56489;53.166;10.864;2022-08-21T14:41:38;1.90;;;1.10;;
14961;SDS011;56489;53.166;10.864;2022-08-21T14:44:05;1.73;;;1.30;;
14961;SDS011;56489;53.166;10.864;2022-08-21T14:46:35;1.85;;;0.90;;
14961;SDS011;56489;53.166;10.864;2022-08-21T14:49:25;1.10;;;0.85;;
14961;SDS011;56489;53.166;10.864;2022-08-21T14:51:57;1.95;;;1.00;;
14961;SDS011;56489;53.166;10.864;2022-08-21T14:54:25;1.65;;;1.00;;
14961;SDS011;56489;53.166;10.864;2022-08-21T14:56:57;1.33;;;1.20;;
14961;SDS011;56489;53.166;10.864;2022-08-21T14:59:29;2.40;;;1.20;;
14961;SDS011;56489;53.166;10.864;2022-08-21T15:01:55;1.00;;;0.90;;
14961;SDS011;56489;53.166;10.864;2022-08-21T15:04:22;1.77;;;0.98;;
14961;SDS011;56489;53.166;10.864;2022-08-21T15:06:49;1.25;;;1.10;;
14961;SDS011;56489;53.166;10.864;2022-08-21T15:09:15;1.35;;;1.10;;
14961;SDS011;56489;53.166;10.864;2022-08-21T15:11:42;2.05;;;1.20;;
14961;SDS011;56489;53.166;10.864;2022-08-21T15:14:11;3.13;;;1.92;;
14961;SDS011;56489;53.166;10.864;2022-08-21T15:16:45;1.30;;;1.15;;
14961;SDS011;56489;53.166;10.864;2022-08-21T15:19:13;3.38;;;1.20;;
14961;SDS011;56489;53.166;10.864;2022-08-21T15:21:39;2.47;;;0.90;;
14961;SDS011;56489;53.166;10.864;2022-08-21T15:24:06;2.40;;;1.13;;
14961;SDS011;56489;53.166;10.864;2022-08-21T15:26:33;1.60;;;1.20;;
14961;SDS011;56489;53.166;10.864;2022-08-21T15:29:01;2.05;;;1.00;;
14961;SDS011;56489;53.166;10.864;2022-08-21T15:31:32;1.75;;;1.20;;
14961;SDS011;56489;53.166;10.864;2022-08-21T15:33:58;1.35;;;1.00;;
14961;SDS011;56489;53.166;10.864;2022-08-21T15:36:25;1.55;;;1.33;;
14961;SDS011;56489;53.166;10.864;2022-08-21T15:38:52;1.33;;;1.23;;
14961;SDS011;56489;53.166;10.864;2022-08-21T15:41:18;1.23;;;0.90;;
14961;SDS011;56489;53.166;10.864;2022-08-21T15:43:46;2.55;;;1.27;;
14961;SDS011;56489;53.166;10.864;2022-08-21T15:46:15;2.15;;;1.17;;
14961;SDS011;56489;53.166;10.864;2022-08-21T15:48:44;2.28;;;1.35;;
14961;SDS011;56489;53.166;10.864;2022-08-21T15:51:12;2.25;;;1.02;;
14961;SDS011;56489;53.166;10.864;2022-08-21T15:53:40;1.35;;;1.25;;
14961;SDS011;56489;53.166;10.864;2022-08-21T15:56:10;2.30;;;1.52;;